createdAt,value
2022-08-26T00:03:45.981Z,0.00
2022-08-26T00:08:45.216Z,0.00
2022-08-26T00:13:47.850Z,0.00
2022-08-26T00:18:44.563Z,0.00
2022-08-26T00:23:42.752Z,0.00
2022-08-26T00:28:41.973Z,0.00
2022-08-26T00:33:41.201Z,0.00
2022-08-26T00:38:41.479Z,0.00
2022-08-26T00:43:46.343Z,0.00
2022-08-26T00:48:38.923Z,0.00
2022-08-26T00:53:39.138Z,0.00
2022-08-26T00:58:37.388Z,0.00
2022-08-26T01:03:36.753Z,0.00
2022-08-26T01:08:37.934Z,0.00
2022-08-26T01:13:35.131Z,0.00
2022-08-26T01:18:36.453Z,0.00
2022-08-26T01:23:35.725Z,0.00
2022-08-26T01:28:33.026Z,0.00
2022-08-26T01:33:39.995Z,0.00
2022-08-26T01:38:32.651Z,0.00
2022-08-26T01:43:30.782Z,0.00
2022-08-26T01:48:29.927Z,0.00
2022-08-26T01:53:29.251Z,0.00
2022-08-26T01:58:28.585Z,0.00
2022-08-26T02:03:28.954Z,0.00
2022-08-26T02:08:28.208Z,0.00
2022-08-26T02:13:28.542Z,0.00
2022-08-26T02:18:25.613Z,0.00
2022-08-26T02:23:25.161Z,0.00
2022-08-26T02:28:26.748Z,0.00
2022-08-26T02:33:24.467Z,0.00
2022-08-26T02:38:24.593Z,0.00
2022-08-26T02:43:31.665Z,0.00
2022-08-26T02:48:22.115Z,0.00
2022-08-26T02:53:25.418Z,0.00
2022-08-26T02:58:20.592Z,0.00
2022-08-26T03:03:19.760Z,0.00
2022-08-26T03:08:20.037Z,0.00
2022-08-26T03:13:17.363Z,0.00
2022-08-26T03:18:16.660Z,0.00
2022-08-26T03:23:15.995Z,0.00
2022-08-26T03:28:15.361Z,0.00
2022-08-26T03:33:14.537Z,0.00
2022-08-26T03:38:13.852Z,0.00
2022-08-26T03:43:13.316Z,0.00
2022-08-26T03:48:13.449Z,0.00
2022-08-26T03:53:13.213Z,0.00
2022-08-26T03:58:11.048Z,0.00
2022-08-26T04:03:14.649Z,0.00
2022-08-26T04:08:10.479Z,0.00
2022-08-26T04:13:10.640Z,0.00
2022-08-26T04:18:07.899Z,0.00
2022-08-26T04:23:07.246Z,0.00
2022-08-26T04:28:07.281Z,0.00
2022-08-26T04:33:12.764Z,0.00
2022-08-26T04:38:05.885Z,0.00
2022-08-26T04:43:04.849Z,0.00
2022-08-26T04:48:03.146Z,0.00
2022-08-26T04:53:03.362Z,4.00
2022-08-26T04:58:01.560Z,4.00
2022-08-26T05:03:00.764Z,4.00
2022-08-26T05:07:59.814Z,0.00
2022-08-26T05:12:58.991Z,4.00
2022-08-26T05:17:58.161Z,4.00
2022-08-26T05:22:58.332Z,8.00
2022-08-26T05:27:55.629Z,8.00
2022-08-26T05:32:55.981Z,68.00
2022-08-26T05:37:55.103Z,72.00
2022-08-26T05:42:54.297Z,68.00
2022-08-26T05:47:53.435Z,64.00
2022-08-26T05:52:52.563Z,60.00
2022-08-26T05:57:51.889Z,72.00
2022-08-26T06:02:53.102Z,84.00
2022-08-26T06:07:50.423Z,88.00
2022-08-26T06:12:49.529Z,92.00
2022-08-26T06:17:48.664Z,120.00
2022-08-26T06:22:47.927Z,180.00
2022-08-26T06:27:47.101Z,184.00
2022-08-26T06:32:49.427Z,128.00
2022-08-26T06:37:45.602Z,152.00
2022-08-26T06:42:44.710Z,180.00
2022-08-26T06:47:43.870Z,184.00
2022-08-26T06:52:44.008Z,184.00
2022-08-26T06:57:43.333Z,168.00
2022-08-26T07:02:46.838Z,204.00
2022-08-26T07:07:40.845Z,188.00
2022-08-26T07:12:40.123Z,180.00
2022-08-26T07:17:40.257Z,140.00
2022-08-26T07:22:38.371Z,124.00
2022-08-26T07:27:38.615Z,128.00
2022-08-26T07:32:36.995Z,124.00
2022-08-26T07:37:39.209Z,124.00
2022-08-26T07:42:35.341Z,124.00
2022-08-26T07:47:34.541Z,124.00
2022-08-26T07:52:33.774Z,128.00
2022-08-26T07:57:32.971Z,132.00
2022-08-26T08:02:33.257Z,136.00
2022-08-26T08:07:44.656Z,144.00
2022-08-26T08:12:31.546Z,164.00
2022-08-26T08:17:29.845Z,184.00
2022-08-26T08:22:29.171Z,188.00
2022-08-26T08:27:28.518Z,156.00
2022-08-26T08:32:27.633Z,144.00
2022-08-26T08:37:27.910Z,148.00
2022-08-26T08:42:26.176Z,148.00
2022-08-26T08:47:25.350Z,148.00
2022-08-26T08:52:25.464Z,148.00
2022-08-26T08:57:23.775Z,160.00
2022-08-26T09:02:23.144Z,168.00
2022-08-26T09:07:23.229Z,156.00
2022-08-26T09:12:29.466Z,188.00
2022-08-26T09:17:21.577Z,212.00
2022-08-26T09:22:19.858Z,240.00
2022-08-26T09:27:19.140Z,240.00
2022-08-26T09:32:17.487Z,180.00
2022-08-26T09:37:17.876Z,168.00
2022-08-26T09:42:17.197Z,172.00
2022-08-26T09:47:16.535Z,212.00
2022-08-26T09:52:17.747Z,216.00
2022-08-26T09:57:15.848Z,184.00
2022-08-26T10:02:14.166Z,176.00
2022-08-26T10:07:13.392Z,172.00
2022-08-26T10:12:12.749Z,176.00
2022-08-26T10:17:11.914Z,176.00
2022-08-26T10:22:12.034Z,168.00
2022-08-26T10:27:10.235Z,168.00
2022-08-26T10:32:13.823Z,172.00
2022-08-26T10:37:14.525Z,180.00
2022-08-26T10:42:07.898Z,192.00
2022-08-26T10:47:07.195Z,208.00
2022-08-26T10:52:05.308Z,212.00
2022-08-26T10:57:05.481Z,212.00
2022-08-26T11:02:04.076Z,204.00
2022-08-26T11:07:03.979Z,212.00
2022-08-26T11:12:10.036Z,220.00
2022-08-26T11:17:02.383Z,256.00
2022-08-26T11:22:01.480Z,356.00
2022-08-26T11:27:00.681Z,192.00
2022-08-26T11:32:01.060Z,188.00
2022-08-26T11:36:59.158Z,180.00
2022-08-26T11:41:58.515Z,188.00
2022-08-26T11:46:58.821Z,200.00
2022-08-26T11:51:58.227Z,208.00
2022-08-26T11:56:57.296Z,212.00
2022-08-26T12:01:55.616Z,224.00
2022-08-26T12:06:54.927Z,232.00
2022-08-26T12:11:58.014Z,208.00
2022-08-26T12:16:55.561Z,236.00
2022-08-26T12:21:52.835Z,252.00
2022-08-26T12:26:52.145Z,264.00
2022-08-26T12:31:51.476Z,240.00
2022-08-26T12:36:51.732Z,256.00
2022-08-26T12:41:49.828Z,248.00
2022-08-26T12:46:49.854Z,188.00
2022-08-26T12:51:49.437Z,184.00
2022-08-26T12:56:48.811Z,200.00
2022-08-26T13:01:47.999Z,232.00
2022-08-26T13:06:47.151Z,276.00
2022-08-26T13:11:45.476Z,252.00
2022-08-26T13:16:44.641Z,276.00
2022-08-26T13:21:45.791Z,304.00
2022-08-26T13:26:44.137Z,308.00
2022-08-26T13:31:42.321Z,304.00
2022-08-26T13:36:42.473Z,312.00
2022-08-26T13:41:40.621Z,380.00
2022-08-26T13:46:40.865Z,360.00
2022-08-26T13:51:39.095Z,376.00
2022-08-26T13:56:38.242Z,340.00
2022-08-26T14:01:37.383Z,340.00
2022-08-26T14:06:36.523Z,332.00
2022-08-26T14:11:54.131Z,348.00
2022-08-26T14:16:34.919Z,284.00
2022-08-26T14:21:34.085Z,280.00
2022-08-26T14:26:33.214Z,288.00
2022-08-26T14:31:34.385Z,260.00
2022-08-26T14:36:33.525Z,276.00
2022-08-26T14:41:30.658Z,268.00
2022-08-26T14:46:30.241Z,216.00
2022-08-26T14:51:29.302Z,144.00
2022-08-26T14:56:28.456Z,124.00
2022-08-26T15:01:30.891Z,188.00
2022-08-26T15:06:26.865Z,192.00
2022-08-26T15:11:26.018Z,228.00
2022-08-26T15:16:24.383Z,336.00
2022-08-26T15:21:23.451Z,456.00
2022-08-26T15:26:24.612Z,448.00
2022-08-26T15:31:23.811Z,328.00
2022-08-26T15:36:21.955Z,256.00
2022-08-26T15:41:21.272Z,152.00
2022-08-26T15:46:21.637Z,120.00
2022-08-26T15:51:19.763Z,104.00
2022-08-26T15:56:20.091Z,92.00
2022-08-26T16:01:18.484Z,84.00
2022-08-26T16:06:17.686Z,88.00
2022-08-26T16:11:16.893Z,100.00
2022-08-26T16:16:16.096Z,84.00
2022-08-26T16:21:16.278Z,76.00
2022-08-26T16:26:15.412Z,60.00
2022-08-26T16:31:13.854Z,80.00
2022-08-26T16:36:13.016Z,64.00
2022-08-26T16:41:12.159Z,72.00
2022-08-26T16:46:12.355Z,60.00
2022-08-26T16:51:09.585Z,36.00
2022-08-26T16:56:10.738Z,16.00
2022-08-26T17:01:08.878Z,12.00
2022-08-26T17:06:08.088Z,20.00
2022-08-26T17:11:07.223Z,20.00
2022-08-26T17:16:07.460Z,16.00
2022-08-26T17:21:06.687Z,8.00
2022-08-26T17:26:05.909Z,8.00
2022-08-26T17:31:04.039Z,4.00
2022-08-26T17:36:03.196Z,4.00
2022-08-26T17:41:01.378Z,4.00
2022-08-26T17:46:06.991Z,4.00
2022-08-26T17:51:01.760Z,0.00
2022-08-26T17:56:02.066Z,0.00
2022-08-26T18:01:01.260Z,0.00
2022-08-26T18:05:58.354Z,0.00
2022-08-26T18:10:58.677Z,0.00
2022-08-26T18:15:59.139Z,0.00
2022-08-26T18:21:01.382Z,0.00
2022-08-26T18:25:56.489Z,0.00
2022-08-26T18:30:57.469Z,0.00
2022-08-26T18:35:54.004Z,0.00
2022-08-26T18:40:54.132Z,0.00
2022-08-26T18:45:52.356Z,0.00
2022-08-26T18:50:55.159Z,0.00
2022-08-26T18:55:52.833Z,0.00
2022-08-26T19:00:51.369Z,4.00
2022-08-26T19:05:49.438Z,4.00
2022-08-26T19:10:49.592Z,4.00
2022-08-26T19:15:47.897Z,16.00
2022-08-26T19:20:49.279Z,4.00
2022-08-26T19:25:47.484Z,4.00
2022-08-26T19:30:46.026Z,4.00
2022-08-26T19:35:44.860Z,4.00
2022-08-26T19:40:44.066Z,4.00
2022-08-26T19:45:45.304Z,4.00
2022-08-26T19:50:43.632Z,4.00
2022-08-26T19:55:42.913Z,4.00
2022-08-26T20:00:41.160Z,4.00
2022-08-26T20:05:40.394Z,4.00
2022-08-26T20:10:41.680Z,4.00
2022-08-26T20:15:38.974Z,4.00
2022-08-26T20:20:39.797Z,4.00
2022-08-26T20:25:37.987Z,4.00
2022-08-26T20:30:35.459Z,4.00
2022-08-26T20:35:35.693Z,4.00
2022-08-26T20:40:35.804Z,4.00
2022-08-26T20:45:34.116Z,0.00
2022-08-26T20:50:33.353Z,0.00
2022-08-26T20:55:32.611Z,0.00
2022-08-26T21:00:31.823Z,0.00
2022-08-26T21:05:31.037Z,0.00
2022-08-26T21:10:31.297Z,0.00
2022-08-26T21:15:29.547Z,0.00
2022-08-26T21:20:29.904Z,0.00
2022-08-26T21:25:29.175Z,0.00
2022-08-26T21:30:26.392Z,4.00
2022-08-26T21:35:25.683Z,0.00
2022-08-26T21:40:26.943Z,0.00
2022-08-26T21:45:26.238Z,4.00
2022-08-26T21:50:24.541Z,4.00
2022-08-26T21:55:24.743Z,4.00
2022-08-26T22:00:22.948Z,4.00
2022-08-26T22:05:23.157Z,4.00
2022-08-26T22:10:22.356Z,4.00
2022-08-26T22:15:20.634Z,4.00
2022-08-26T22:20:20.876Z,4.00
2022-08-26T22:25:20.041Z,4.00
2022-08-26T22:30:18.210Z,0.00
2022-08-26T22:35:29.101Z,4.00
2022-08-26T22:40:15.840Z,4.00
2022-08-26T22:45:17.059Z,4.00
2022-08-26T22:50:16.238Z,4.00
2022-08-26T22:55:15.433Z,4.00
2022-08-26T23:00:13.651Z,4.00
2022-08-26T23:05:12.900Z,4.00
2022-08-26T23:10:12.107Z,4.00
2022-08-26T23:15:11.328Z,4.00
2022-08-26T23:20:11.544Z,4.00
2022-08-26T23:25:10.038Z,0.00
2022-08-26T23:30:09.091Z,0.00
2022-08-26T23:35:08.316Z,0.00
2022-08-26T23:40:08.662Z,0.00
2022-08-26T23:45:07.926Z,0.00
2022-08-26T23:50:08.271Z,0.00
2022-08-26T23:55:05.559Z,0.00
